Time;durP1;ratioP1;P1;durP2;ratioP2;P2;SDS_P1;SDS_P2;PMS_P1;PMS_P2;Temp;Humidity;BMP_temperature;BMP_pressure;BME280_temperature;BME280_humidity;BME280_pressure;Samples;Min_cycle;Max_cycle;Signal;HPM_P1;HPM_P2
2022/06/23 00:01:26;;;;;;;29.45;16.02;;;20.20;99.90;;;;;;4994612;28;20421;-48
2022/06/23 00:03:57;;;;;;;22.98;15.63;;;20.20;99.90;;;;;;4994620;28;20033;-49
2022/06/23 00:06:58;;;;;;;19.92;14.27;;;20.20;99.90;;;;;;4994665;28;20030;-48
2022/06/23 00:09:35;;;;;;;27.13;14.32;;;20.20;99.90;;;;;;4994629;28;20038;-47
2022/06/23 00:12:15;;;;;;;32.97;14.65;;;20.20;99.90;;;;;;4994620;28;20046;-45
2022/06/23 00:14:41;;;;;;;14.60;11.85;;;20.20;99.90;;;;;;4994586;28;20084;-48
2022/06/23 00:17:27;;;;;;;19.90;11.35;;;20.30;99.90;;;;;;4994092;28;20022;-50
2022/06/23 00:19:54;;;;;;;19.60;12.93;;;20.40;99.90;;;;;;4994446;28;20026;-48
2022/06/23 00:22:24;;;;;;;17.77;12.95;;;20.40;99.90;;;;;;4993495;28;20022;-53
2022/06/23 00:24:57;;;;;;;22.58;13.27;;;20.50;99.90;;;;;;4994404;28;20497;-49
2022/06/23 00:27:31;;;;;;;21.52;13.13;;;20.50;99.90;;;;;;4993886;28;20113;-50
2022/06/23 00:30:02;;;;;;;27.70;12.27;;;20.50;99.90;;;;;;4994292;28;20485;-51
2022/06/23 00:32:29;;;;;;;20.52;13.65;;;20.50;99.90;;;;;;4993978;28;20092;-47
2022/06/23 00:35:05;;;;;;;20.08;13.02;;;20.50;99.90;;;;;;4976288;28;20482;-49
2022/06/23 00:37:31;;;;;;;21.27;12.43;;;20.50;99.90;;;;;;4993764;28;20023;-47
2022/06/23 00:40:05;;;;;;;18.45;10.95;;;20.50;99.90;;;;;;4976228;22;1042050;-47
2022/06/23 00:42:38;;;;;;;23.35;12.52;;;20.50;99.90;;;;;;5012972;28;20025;-46
2022/06/23 00:45:07;;;;;;;27.90;11.80;;;20.50;99.90;;;;;;5013531;28;20026;-48
2022/06/23 00:47:48;;;;;;;23.63;10.98;;;20.40;99.90;;;;;;5013176;28;20545;-50
2022/06/23 00:50:34;;;;;;;21.73;11.55;;;20.30;99.90;;;;;;5013251;28;20042;-48
2022/06/23 00:53:12;;;;;;;29.17;12.60;;;20.30;99.90;;;;;;5013428;28;20021;-48
2022/06/23 00:56:01;;;;;;;16.02;12.10;;;20.30;99.90;;;;;;5013231;28;20405;-47
2022/06/23 00:58:40;;;;;;;22.15;11.95;;;20.20;99.90;;;;;;5012391;28;20110;-48
2022/06/23 01:01:23;;;;;;;21.15;12.00;;;20.20;99.90;;;;;;5013213;28;20029;-46
2022/06/23 01:04:08;;;;;;;22.13;11.65;;;20.10;99.90;;;;;;5013224;28;20018;-47
2022/06/23 01:06:49;;;;;;;19.05;10.57;;;20.20;99.90;;;;;;4995567;28;20026;-46
2022/06/23 01:09:38;;;;;;;15.52;11.48;;;20.10;99.90;;;;;;5013043;28;20060;-50
2022/06/23 01:12:21;;;;;;;17.33;11.55;;;20.20;99.90;;;;;;5013039;28;20022;-47
2022/06/23 01:14:55;;;;;;;21.95;12.73;;;20.10;99.90;;;;;;5012952;28;20029;-46
2022/06/23 01:17:41;;;;;;;23.83;11.35;;;20.20;99.90;;;;;;5012719;28;20105;-51
2022/06/23 01:20:37;;;;;;;18.15;11.82;;;20.20;99.90;;;;;;4995403;28;20080;-47
2022/06/23 01:23:20;;;;;;;19.92;10.50;;;20.20;99.90;;;;;;5012880;28;20037;-49
2022/06/23 01:26:08;;;;;;;17.98;10.32;;;20.10;99.90;;;;;;5013101;28;20097;-46
2022/06/23 01:28:39;;;;;;;11.85;9.38;;;20.10;99.90;;;;;;5012407;28;20029;-46
2022/06/23 01:31:28;;;;;;;23.63;11.23;;;20.20;99.90;;;;;;5012589;28;20026;-49
2022/06/23 01:34:15;;;;;;;23.60;11.70;;;20.20;99.90;;;;;;4994113;28;20398;-48
2022/06/23 01:36:59;;;;;;;23.95;11.38;;;20.10;99.90;;;;;;5012485;28;20438;-46
2022/06/23 01:39:48;;;;;;;21.40;10.60;;;20.00;99.90;;;;;;5012622;28;20076;-49
2022/06/23 01:42:28;;;;;;;20.55;9.73;;;19.90;99.90;;;;;;5012855;28;20231;-47
2022/06/23 01:45:08;;;;;;;17.95;10.40;;;19.80;99.90;;;;;;5012336;28;20030;-46
2022/06/23 01:47:54;;;;;;;18.02;10.20;;;19.70;99.90;;;;;;5012066;28;20084;-48
2022/06/23 01:50:34;;;;;;;19.45;9.60;;;19.60;99.90;;;;;;5012387;28;20022;-47
2022/06/23 01:53:27;;;;;;;23.05;9.65;;;19.50;99.90;;;;;;5012332;28;20025;-47
2022/06/23 01:56:22;;;;;;;19.25;9.88;;;19.50;99.90;;;;;;5009479;28;20100;-48
2022/06/23 01:59:25;;;;;;;14.40;8.65;;;19.40;99.90;;;;;;5011981;28;20081;-46
2022/06/23 02:02:17;;;;;;;17.35;10.90;;;19.50;99.90;;;;;;5012188;28;20296;-46
2022/06/23 02:05:25;;;;;;;15.52;9.30;;;19.50;99.90;;;;;;5012332;28;20033;-49
2022/06/23 02:08:32;;;;;;;15.05;9.48;;;19.50;99.90;;;;;;5002287;28;20121;-46
2022/06/23 02:11:12;;;;;;;16.90;8.75;;;19.50;99.90;;;;;;5001447;28;20038;-47
2022/06/23 02:14:16;;;;;;;13.98;8.50;;;19.50;99.90;;;;;;5012161;28;20079;-47
2022/06/23 02:16:51;;;;;;;18.70;8.93;;;19.50;99.90;;;;;;4994564;28;20073;-47
2022/06/23 02:19:28;;;;;;;;;;;19.40;99.90;;;;;;5012383;28;20076;-45
2022/06/23 02:22:21;;;;;;;13.38;7.28;;;19.40;99.90;;;;;;4994661;28;19905;-47
2022/06/23 02:24:49;;;;;;;10.30;7.57;;;19.40;99.90;;;;;;4977351;28;20114;-46
2022/06/23 02:27:19;;;;;;;14.05;9.02;;;19.40;99.90;;;;;;5011552;28;20088;-47
2022/06/23 02:30:00;;;;;;;15.18;8.30;;;19.40;99.90;;;;;;5011744;28;20121;-46
2022/06/23 02:32:32;;;;;;;12.35;7.60;;;19.30;99.90;;;;;;5011888;28;20113;-46
2022/06/23 02:35:40;;;;;;;11.02;8.25;;;19.30;99.90;;;;;;5011560;28;20028;-46
2022/06/23 02:38:17;;;;;;;15.25;8.50;;;19.30;99.90;;;;;;5011473;28;20104;-49
2022/06/23 02:40:47;;;;;;;17.35;9.25;;;19.20;99.90;;;;;;5011672;28;20038;-47
2022/06/23 02:43:39;;;;;;;13.18;8.20;;;19.20;99.90;;;;;;5011533;28;20030;-49
2022/06/23 02:46:33;;;;;;;15.85;8.57;;;19.10;99.90;;;;;;5011201;28;20077;-48
2022/06/23 02:49:14;;;;;;;17.23;9.52;;;19.10;99.90;;;;;;5015701;28;20017;-48
2022/06/23 02:51:40;;;;;;;13.85;9.48;;;19.00;99.90;;;;;;5013306;28;20099;-49
2022/06/23 02:54:26;;;;;;;14.68;9.35;;;19.00;99.90;;;;;;5015053;28;20034;-46
2022/06/23 02:57:23;;;;;;;14.30;8.32;;;18.90;99.90;;;;;;5015009;28;20029;-47
2022/06/23 03:00:02;;;;;;;11.82;7.85;;;18.90;99.90;;;;;;5015232;28;20061;-47
2022/06/23 03:03:03;;;;;;;16.40;9.30;;;18.80;99.90;;;;;;5014808;28;20033;-51
2022/06/23 03:05:40;;;;;;;19.80;10.15;;;18.80;99.90;;;;;;4973048;28;20053;-48
2022/06/23 03:08:15;;;;;;;16.70;10.05;;;18.80;99.90;;;;;;5014410;28;20119;-48
2022/06/23 03:10:45;;;;;;;24.38;10.55;;;18.90;99.90;;;;;;4997869;28;20026;-48
2022/06/23 03:13:41;;;;;;;14.48;9.05;;;18.90;99.90;;;;;;5015580;28;20105;-48
2022/06/23 03:16:19;;;;;;;14.38;8.07;;;19.00;99.90;;;;;;5015324;28;20091;-50
2022/06/23 03:18:59;;;;;;;21.20;9.65;;;19.00;99.90;;;;;;5014957;28;20033;-48
2022/06/23 03:21:46;;;;;;;20.48;9.85;;;19.10;99.90;;;;;;5015182;28;20121;-47
2022/06/23 03:24:35;;;;;;;24.88;12.05;;;19.00;99.90;;;;;;5014912;28;20053;-49
2022/06/23 03:27:13;;;;;;;19.38;10.05;;;19.10;99.90;;;;;;5014045;28;20042;-48
2022/06/23 03:29:53;;;;;;;20.90;10.93;;;19.10;99.90;;;;;;5014756;28;20480;-46
2022/06/23 03:32:30;;;;;;;15.70;10.43;;;19.00;99.90;;;;;;4997255;28;20053;-50
2022/06/23 03:35:10;;;;;;;17.75;9.95;;;19.00;99.90;;;;;;5014902;28;20022;-46
2022/06/23 03:37:51;;;;;;;16.27;9.45;;;19.00;99.90;;;;;;5014572;28;20120;-48
2022/06/23 03:43:37;;;;;;;11.77;8.30;;;19.00;99.90;;;;;;5014096;28;20032;-49
2022/06/23 03:46:19;;;;;;;14.20;8.65;;;19.10;99.90;;;;;;5010043;28;20038;-47
2022/06/23 03:48:54;;;;;;;14.98;9.38;;;19.20;99.90;;;;;;5013967;28;20137;-47
2022/06/23 03:51:29;;;;;;;;;;;19.20;99.90;;;;;;5014882;28;20057;-50
2022/06/23 03:54:00;;;;;;;16.35;8.65;;;19.20;99.90;;;;;;5014684;28;19913;-49
2022/06/23 03:56:31;;;;;;;13.32;8.63;;;19.30;99.90;;;;;;5014015;28;20192;-47
2022/06/23 03:59:02;;;;;;;15.02;9.27;;;19.30;99.90;;;;;;5014337;28;20021;-52
2022/06/23 04:01:39;;;;;;;14.82;7.65;;;19.30;99.90;;;;;;5014778;28;20493;-47
2022/06/23 04:04:42;;;;;;;18.90;8.23;;;19.40;99.90;;;;;;5013382;28;20029;-46
2022/06/23 04:07:34;;;;;;;14.57;9.85;;;19.40;99.90;;;;;;5013610;28;20104;-48
2022/06/23 04:10:07;;;;;;;16.63;9.63;;;19.50;99.90;;;;;;5014274;28;20026;-47
2022/06/23 04:12:34;;;;;;;19.70;10.70;;;19.50;99.90;;;;;;5014143;28;20030;-48
2022/06/23 04:15:05;;;;;;;20.30;9.75;;;19.50;99.90;;;;;;5014272;28;20049;-46
2022/06/23 04:17:43;;;;;;;18.98;9.90;;;19.50;99.90;;;;;;5014005;28;20048;-46
2022/06/23 04:20:14;;;;;;;13.50;9.93;;;19.40;99.90;;;;;;5014077;28;20388;-49
2022/06/23 04:22:47;;;;;;;17.58;10.57;;;19.30;99.90;;;;;;5013932;28;20030;-47
2022/06/23 04:25:18;;;;;;;14.38;9.50;;;19.30;99.90;;;;;;5013835;28;20428;-48
2022/06/23 04:27:57;;;;;;;13.40;9.10;;;19.30;99.90;;;;;;5013636;28;20028;-46
2022/06/23 04:30:25;;;;;;;13.07;9.52;;;19.40;99.90;;;;;;5013810;28;20037;-48
2022/06/23 04:32:52;;;;;;;13.80;9.43;;;19.50;99.90;;;;;;5013816;28;20034;-47
2022/06/23 04:35:26;;;;;;;16.58;8.80;;;19.50;99.90;;;;;;5013740;28;20041;-48
2022/06/23 04:38:11;;;;;;;11.80;8.60;;;19.60;99.90;;;;;;5013520;28;20030;-50
2022/06/23 04:40:42;;;;;;;12.85;8.88;;;19.70;99.90;;;;;;5013517;28;20029;-47
2022/06/23 04:43:19;;;;;;;14.18;9.55;;;19.80;99.90;;;;;;5013580;28;20029;-46
2022/06/23 04:46:14;;;;;;;13.15;8.25;;;19.90;99.90;;;;;;5013597;28;20029;-50
2022/06/23 04:48:39;;;;;;;11.70;8.95;;;20.00;99.90;;;;;;5012713;28;21115;-46
2022/06/23 04:51:16;;;;;;;19.58;8.98;;;20.10;99.90;;;;;;5013424;28;20036;-47
2022/06/23 04:53:55;;;;;;;19.42;8.68;;;20.20;99.90;;;;;;5013401;28;20025;-47
2022/06/23 04:56:30;;;;;;;16.05;9.18;;;20.40;99.90;;;;;;5013088;28;20025;-47
2022/06/23 04:59:02;;;;;;;13.73;8.25;;;20.40;99.90;;;;;;5013054;28;20021;-45
2022/06/23 05:01:36;;;;;;;16.63;9.02;;;20.50;99.90;;;;;;5019676;28;20022;-48
2022/06/23 05:04:04;;;;;;;14.13;8.75;;;20.70;99.90;;;;;;5013215;28;20029;-50
2022/06/23 05:06:41;;;;;;;13.80;8.02;;;21.00;99.90;;;;;;5013092;28;20022;-46
2022/06/23 05:09:26;;;;;;;15.75;8.25;;;21.20;99.90;;;;;;5012852;28;20029;-46
2022/06/23 05:11:56;;;;;;;15.88;7.82;;;21.40;99.90;;;;;;5014994;28;20014;-47
2022/06/23 05:14:40;;;;;;;16.73;9.02;;;21.60;99.90;;;;;;5014017;28;20034;-50
2022/06/23 05:17:24;;;;;;;15.57;8.82;;;21.80;99.90;;;;;;5020331;28;20048;-45
2022/06/23 05:19:54;;;;;;;14.95;7.78;;;22.00;99.90;;;;;;5017448;28;20108;-46
2022/06/23 05:22:39;;;;;;;14.32;7.43;;;22.20;99.90;;;;;;5032672;28;20036;-49
2022/06/23 05:25:28;;;;;;;15.48;7.63;;;22.40;99.90;;;;;;5015730;28;20116;-49
2022/06/23 05:27:53;;;;;;;13.95;8.05;;;22.80;99.90;;;;;;5011863;28;20097;-49
2022/06/23 05:30:32;;;;;;;12.07;7.50;;;23.10;99.90;;;;;;5012005;28;20037;-47
2022/06/23 05:33:07;;;;;;;11.40;7.45;;;23.40;99.90;;;;;;5012580;28;20402;-47
2022/06/23 05:35:39;;;;;;;14.07;8.88;;;23.60;99.90;;;;;;5019686;28;20030;-45
2022/06/23 05:38:12;;;;;;;12.43;7.10;;;23.90;99.90;;;;;;5028550;28;20033;-45
2022/06/23 05:40:52;;;;;;;10.38;6.53;;;24.20;99.90;;;;;;5019845;28;20037;-50
2022/06/23 05:43:18;;;;;;;13.05;6.40;;;24.50;99.90;;;;;;5011198;28;20037;-48
2022/06/23 05:45:53;;;;;;;7.65;5.88;;;24.90;99.90;;;;;;5011471;28;20472;-47
2022/06/23 05:48:24;;;;;;;;;;;25.30;99.90;;;;;;5011699;28;20018;-49
2022/06/23 05:50:52;;;;;;;16.45;8.25;;;25.60;99.90;;;;;;5012058;28;19909;-48
2022/06/23 05:53:37;;;;;;;21.08;7.07;;;26.00;99.90;;;;;;5012043;28;20026;-48
2022/06/23 05:56:06;;;;;;;;;;;26.10;99.90;;;;;;5012377;28;20022;-48
2022/06/23 05:58:46;;;;;;;16.98;7.47;;;26.30;99.90;;;;;;5011973;28;20277;-48
2022/06/23 06:01:22;;;;;;;14.95;7.65;;;26.80;99.80;;;;;;5011996;28;20123;-47
2022/06/23 06:03:56;;;;;;;17.20;7.40;;;27.20;98.60;;;;;;5012087;28;20061;-52
2022/06/23 06:06:22;;;;;;;8.98;5.70;;;27.20;98.30;;;;;;5012091;28;20321;-48
2022/06/23 06:11:40;;;;;;;13.13;6.80;;;27.90;97.20;;;;;;5011921;28;20088;-47
2022/06/23 06:14:05;;;;;;;11.77;7.07;;;28.30;96.80;;;;;;5011895;28;20116;-50
2022/06/23 06:16:32;;;;;;;11.68;6.32;;;28.60;95.70;;;;;;5011884;28;20096;-48
2022/06/23 06:18:58;;;;;;;14.95;7.35;;;28.80;95.80;;;;;;5011877;28;20037;-46
2022/06/23 06:21:25;;;;;;;12.70;6.10;;;29.30;95.10;;;;;;5011875;28;20092;-48
2022/06/23 06:24:22;;;;;;;14.38;6.82;;;29.50;94.10;;;;;;5012055;28;20037;-53
2022/06/23 06:26:51;;;;;;;11.88;6.05;;;29.80;94.00;;;;;;4993544;28;20525;-52
2022/06/23 06:29:28;;;;;;;14.32;7.82;;;30.30;93.40;;;;;;4994400;28;20393;-53
2022/06/23 06:32:15;;;;;;;12.23;6.22;;;30.60;92.20;;;;;;5012063;28;20024;-49
2022/06/23 06:34:58;;;;;;;12.98;8.07;;;30.70;92.00;;;;;;5012048;28;20017;-47
2022/06/23 06:37:29;;;;;;;10.15;6.07;;;31.20;91.50;;;;;;5011531;28;20395;-48
2022/06/23 06:42:47;;;;;;;11.77;6.32;;;31.50;91.40;;;;;;5030628;23;20096;-51
2022/06/23 06:45:17;;;;;;;8.57;6.32;;;32.00;90.20;;;;;;5011565;28;20405;-47
2022/06/23 06:47:44;;;;;;;12.90;7.65;;;32.40;89.50;;;;;;5011219;28;20025;-52
2022/06/23 06:50:18;;;;;;;13.95;6.55;;;32.60;87.80;;;;;;5011589;28;20478;-50
2022/06/23 06:52:45;;;;;;;7.28;5.68;;;32.40;87.60;;;;;;4994043;28;20021;-51
2022/06/23 06:55:17;;;;;;;16.75;8.20;;;32.70;86.90;;;;;;5011603;28;20024;-53
2022/06/23 06:57:51;;;;;;;9.15;5.20;;;32.60;87.20;;;;;;4993473;28;20018;-49
2022/06/23 07:00:45;;;;;;;12.52;5.82;;;32.80;87.00;;;;;;5010782;28;20101;-51
2022/06/23 07:03:14;;;;;;;10.13;7.60;;;33.30;85.60;;;;;;5002666;28;20057;-53
2022/06/23 07:05:58;;;;;;;13.70;6.88;;;33.70;83.50;;;;;;4978098;28;20033;-52
2022/06/23 07:08:33;;;;;;;12.98;6.57;;;33.60;83.50;;;;;;5012623;28;20104;-48
2022/06/23 07:11:07;;;;;;;11.93;6.70;;;33.90;82.40;;;;;;5031250;28;20109;-51
2022/06/23 07:13:41;;;;;;;13.05;7.18;;;33.70;83.00;;;;;;5011529;28;20037;-53
2022/06/23 07:16:10;;;;;;;12.25;7.97;;;34.10;82.10;;;;;;5011799;28;20030;-53
2022/06/23 07:18:45;;;;;;;11.85;7.07;;;34.40;81.10;;;;;;5011083;28;20030;-50
2022/06/23 07:21:18;;;;;;;16.27;7.22;;;34.90;80.10;;;;;;5011262;28;20113;-51
2022/06/23 07:24:02;;;;;;;11.77;7.55;;;35.30;79.30;;;;;;5010684;28;20053;-51
2022/06/23 07:26:37;;;;;;;14.88;5.80;;;35.80;78.30;;;;;;5019711;28;20108;-52
2022/06/23 07:29:38;;;;;;;11.57;7.45;;;35.90;76.90;;;;;;5030694;28;20028;-52
2022/06/23 07:32:14;;;;;;;16.27;8.10;;;36.00;75.70;;;;;;4979329;28;20038;-51
2022/06/23 07:34:46;;;;;;;10.48;7.28;;;36.00;75.20;;;;;;4995166;28;20022;-50
2022/06/23 07:37:46;;;;;;;12.68;6.65;;;35.80;74.70;;;;;;4995092;28;20386;-50
2022/06/23 07:40:14;;;;;;;12.68;6.90;;;35.90;75.40;;;;;;4995076;28;20030;-53
2022/06/23 07:43:08;;;;;;;22.60;8.43;;;35.90;75.60;;;;;;5011709;28;20025;-48
2022/06/23 07:45:42;;;;;;;12.15;6.07;;;36.50;73.80;;;;;;5034400;28;20033;-53
2022/06/23 07:48:08;;;;;;;13.48;5.15;;;36.30;74.80;;;;;;5034162;28;20063;-50
2022/06/23 07:50:33;;;;;;;13.02;6.70;;;36.60;74.00;;;;;;5034331;28;20018;-49
2022/06/23 07:53:00;;;;;;;18.83;5.70;;;36.80;72.90;;;;;;5034625;28;20034;-53
2022/06/23 07:55:31;;;;;;;16.45;4.65;;;37.30;71.40;;;;;;5029794;28;20073;-52
2022/06/23 07:57:56;;;;;;;10.10;5.50;;;37.20;71.50;;;;;;5014522;28;20026;-50
2022/06/23 08:00:24;;;;;;;8.52;5.57;;;37.40;71.00;;;;;;4996672;28;20030;-48
2022/06/23 08:03:01;;;;;;;9.00;5.32;;;37.30;70.40;;;;;;5014441;28;20393;-51
2022/06/23 08:05:39;;;;;;;9.25;4.97;;;37.10;70.40;;;;;;4996511;28;20029;-45
2022/06/23 08:08:10;;;;;;;12.55;5.88;;;37.00;71.60;;;;;;4996177;28;20497;-48
2022/06/23 08:10:36;;;;;;;11.57;5.95;;;36.90;70.80;;;;;;5014534;28;20116;-46
2022/06/23 08:13:08;;;;;;;12.20;6.03;;;36.90;71.30;;;;;;5014522;28;20033;-48
2022/06/23 08:18:33;;;;;;;19.08;11.80;;;36.40;70.70;;;;;;5013675;28;20072;-48
2022/06/23 08:21:13;;;;;;;104.05;92.60;;;35.70;72.20;;;;;;5013855;28;20046;-51
2022/06/23 08:23:48;;;;;;;25.73;17.42;;;35.40;72.50;;;;;;5014008;28;20037;-46
2022/06/23 08:26:16;;;;;;;10.88;5.35;;;34.80;74.20;;;;;;5014011;28;20018;-47
2022/06/23 08:28:43;;;;;;;13.43;5.55;;;34.20;75.40;;;;;;5014469;28;20026;-49
2022/06/23 08:31:09;;;;;;;9.73;5.72;;;33.90;76.40;;;;;;5014556;28;20482;-47
2022/06/23 08:33:35;;;;;;;8.57;5.22;;;33.40;77.40;;;;;;5014372;28;20033;-49
2022/06/23 08:36:14;;;;;;;13.63;6.78;;;32.90;78.30;;;;;;5014103;28;20026;-48
2022/06/23 08:38:55;;;;;;;12.73;5.88;;;32.50;79.50;;;;;;5014132;28;20104;-47
2022/06/23 08:41:43;;;;;;;8.93;5.30;;;32.10;80.70;;;;;;5013843;28;20026;-49
2022/06/23 08:44:21;;;;;;;13.77;5.68;;;31.90;82.10;;;;;;5013850;28;20026;-47
2022/06/23 08:46:59;;;;;;;10.55;5.55;;;31.70;83.00;;;;;;5014040;28;20045;-49
2022/06/23 08:49:38;;;;;;;13.90;6.05;;;31.60;82.40;;;;;;5014197;28;20334;-51
2022/06/23 08:52:24;;;;;;;11.40;5.57;;;31.50;82.30;;;;;;5014107;28;20029;-47
2022/06/23 08:55:04;;;;;;;14.63;6.50;;;31.50;82.70;;;;;;5014176;28;20393;-46
2022/06/23 08:57:45;;;;;;;14.27;6.90;;;31.40;83.40;;;;;;5013718;28;20025;-48
2022/06/23 09:00:56;;;;;;;13.82;6.88;;;31.10;83.70;;;;;;5014245;28;20439;-48
2022/06/23 09:03:45;;;;;;;14.02;6.97;;;31.00;84.80;;;;;;4995189;28;20391;-47
2022/06/23 09:06:33;;;;;;;14.00;6.70;;;30.90;85.00;;;;;;5014158;28;20026;-48
2022/06/23 09:09:44;;;;;;;25.25;13.60;;;30.70;85.90;;;;;;5014053;28;20025;-50
2022/06/23 09:12:18;;;;;;;13.90;7.45;;;30.70;85.80;;;;;;4986375;28;20034;-49
2022/06/23 09:14:58;;;;;;;10.20;6.27;;;30.60;86.50;;;;;;5013895;28;20022;-47
2022/06/23 09:17:48;;;;;;;11.52;6.78;;;30.50;87.80;;;;;;5013339;28;20109;-47
2022/06/23 09:20:32;;;;;;;16.83;7.93;;;30.50;87.30;;;;;;5013789;28;20124;-53
2022/06/23 09:23:13;;;;;;;14.97;7.63;;;30.20;87.80;;;;;;5013860;28;20033;-52
2022/06/23 09:26:12;;;;;;;26.55;8.50;;;30.00;88.70;;;;;;5013515;28;20022;-50
2022/06/23 09:28:41;;;;;;;16.25;8.00;;;29.90;89.60;;;;;;5013344;28;20014;-49
2022/06/23 09:31:37;;;;;;;21.88;10.05;;;30.00;90.40;;;;;;5013299;28;20501;-50
2022/06/23 09:34:22;;;;;;;12.88;7.95;;;30.20;90.50;;;;;;5012940;28;20028;-49
2022/06/23 09:37:26;;;;;;;14.02;6.63;;;30.50;90.10;;;;;;5013245;28;20076;-52
2022/06/23 09:40:17;;;;;;;17.35;7.90;;;30.80;89.40;;;;;;5012969;28;20037;-51
2022/06/23 09:43:08;;;;;;;18.38;7.78;;;31.10;88.40;;;;;;5013053;28;20394;-51
2022/06/23 09:45:59;;;;;;;15.40;7.03;;;30.40;90.00;;;;;;4984637;28;20052;-51
2022/06/23 09:48:50;;;;;;;13.00;7.47;;;30.50;90.30;;;;;;5012238;28;20076;-51
2022/06/23 09:51:39;;;;;;;10.18;6.47;;;30.50;89.60;;;;;;5012965;28;20032;-48
2022/06/23 09:54:29;;;;;;;11.57;7.82;;;30.60;89.40;;;;;;5012423;28;20021;-50
2022/06/23 09:57:25;;;;;;;11.40;7.25;;;30.70;88.80;;;;;;5012386;28;20022;-52
2022/06/23 10:00:29;;;;;;;16.25;6.82;;;30.60;88.80;;;;;;4994813;28;20030;-48
2022/06/23 10:03:19;;;;;;;14.77;7.07;;;30.60;88.80;;;;;;5011883;28;20049;-51
2022/06/23 10:06:09;;;;;;;17.77;5.93;;;30.60;88.80;;;;;;5012532;28;20626;-46
2022/06/23 10:08:41;;;;;;;12.18;6.70;;;30.60;89.20;;;;;;5012245;28;20536;-48
2022/06/23 10:11:19;;;;;;;53.90;39.60;;;30.70;90.00;;;;;;5012411;28;20022;-47
2022/06/23 10:13:56;;;;;;;27.05;15.75;;;30.50;90.00;;;;;;5012729;28;20796;-49
2022/06/23 10:16:57;;;;;;;12.95;8.57;;;30.50;90.30;;;;;;5012148;28;20048;-52
2022/06/23 10:20:01;;;;;;;13.18;6.45;;;30.60;90.00;;;;;;5012739;28;20493;-48
2022/06/23 10:23:01;;;;;;;20.45;9.15;;;30.60;90.20;;;;;;5012350;28;20520;-48
2022/06/23 10:25:46;;;;;;;10.23;6.70;;;30.50;89.60;;;;;;4981607;28;20509;-50
2022/06/23 10:28:31;;;;;;;;;;;30.50;89.00;;;;;;5012004;28;20706;-48
2022/06/23 10:31:15;;;;;;;11.68;7.80;;;30.50;89.70;;;;;;5012170;28;19988;-53
2022/06/23 10:34:08;;;;;;;10.57;7.55;;;30.40;90.70;;;;;;4994600;28;20029;-47
2022/06/23 10:37:01;;;;;;;18.60;7.72;;;30.40;90.70;;;;;;5012137;28;20025;-52
2022/06/23 10:39:54;;;;;;;14.32;7.78;;;30.50;90.90;;;;;;5012021;28;20026;-51
2022/06/23 10:42:32;;;;;;;12.20;7.10;;;30.60;90.30;;;;;;5012226;28;20034;-47
2022/06/23 10:45:25;;;;;;;11.70;7.00;;;30.50;89.70;;;;;;5012112;28;20029;-49
2022/06/23 10:48:07;;;;;;;16.48;7.60;;;30.50;90.00;;;;;;5012111;28;20025;-50
2022/06/23 10:51:13;;;;;;;13.52;7.80;;;30.50;90.60;;;;;;5010228;28;20540;-52
2022/06/23 10:54:04;;;;;;;15.98;7.65;;;30.60;90.80;;;;;;4964129;28;20049;-49
2022/06/23 10:56:38;;;;;;;14.93;7.82;;;30.50;90.20;;;;;;5000963;28;20061;-50
2022/06/23 10:59:12;;;;;;;14.77;8.27;;;30.20;90.30;;;;;;5011574;28;20120;-48
2022/06/23 11:01:56;;;;;;;16.30;7.32;;;30.10;90.80;;;;;;5010886;28;20033;-49
2022/06/23 11:04:27;;;;;;;14.65;7.85;;;30.00;90.80;;;;;;5010388;28;20040;-51
2022/06/23 11:07:19;;;;;;;18.60;7.85;;;29.90;90.50;;;;;;5013688;28;20061;-50
2022/06/23 11:10:06;;;;;;;16.42;8.18;;;29.90;90.30;;;;;;5015003;28;20018;-52
2022/06/23 11:13:02;;;;;;;12.07;7.30;;;29.90;90.50;;;;;;5014929;28;20037;-52
2022/06/23 11:15:59;;;;;;;16.48;8.48;;;29.90;90.70;;;;;;5003844;28;20109;-49
2022/06/23 11:18:58;;;;;;;15.07;9.50;;;29.60;90.50;;;;;;5031227;28;20029;-51
2022/06/23 11:21:34;;;;;;;14.38;7.32;;;29.60;91.00;;;;;;5027966;28;20037;-51
2022/06/23 11:24:27;;;;;;;16.33;7.97;;;29.60;91.20;;;;;;5015023;28;20088;-48
2022/06/23 11:27:20;;;;;;;10.38;7.63;;;29.70;91.70;;;;;;5015372;28;20080;-48
2022/06/23 11:29:51;;;;;;;11.70;8.85;;;29.80;91.50;;;;;;5014984;28;20017;-50
2022/06/23 11:32:29;;;;;;;13.30;8.52;;;29.70;91.90;;;;;;5014161;28;20101;-50
2022/06/23 11:35:19;;;;;;;16.23;8.93;;;29.70;91.60;;;;;;5015190;28;20037;-50
2022/06/23 11:37:54;;;;;;;14.13;7.10;;;29.60;91.20;;;;;;5014266;28;20026;-50
2022/06/23 11:40:38;;;;;;;17.35;7.07;;;29.60;91.30;;;;;;5014845;28;20030;-51
2022/06/23 11:43:17;;;;;;;12.75;7.63;;;29.60;91.00;;;;;;5014468;28;20408;-50
2022/06/23 11:46:00;;;;;;;16.48;12.80;;;29.60;91.00;;;;;;5014559;28;20034;-48
2022/06/23 11:48:35;;;;;;;20.98;14.88;;;29.50;90.90;;;;;;5030582;28;20163;-47
2022/06/23 11:51:15;;;;;;;;;;;29.50;91.20;;;;;;5013550;28;20100;-51
2022/06/23 11:53:41;;;;;;;16.48;6.68;;;29.40;90.50;;;;;;5015003;28;19916;-49
2022/06/23 11:56:35;;;;;;;18.25;7.10;;;29.40;90.90;;;;;;5014808;28;20485;-47
2022/06/23 11:59:19;;;;;;;17.77;7.00;;;29.40;90.60;;;;;;4996727;28;20026;-51
2022/06/23 12:01:44;;;;;;;11.00;6.47;;;29.40;90.20;;;;;;5014911;28;20482;-51
2022/06/23 12:04:19;;;;;;;11.23;6.43;;;29.40;90.30;;;;;;5014350;28;20041;-52
2022/06/23 12:06:53;;;;;;;;;;;29.30;90.10;;;;;;5014417;28;20474;-49
2022/06/23 12:09:28;;;;;;;12.13;6.07;;;29.30;90.70;;;;;;5014371;28;20361;-51
2022/06/23 12:11:56;;;;;;;8.77;5.95;;;29.40;90.60;;;;;;5014094;28;20478;-51
2022/06/23 12:14:23;;;;;;;12.98;6.32;;;29.60;90.40;;;;;;5014151;28;20033;-49
2022/06/23 12:17:04;;;;;;;11.43;5.97;;;29.70;89.80;;;;;;5013947;28;20045;-53
2022/06/23 12:20:01;;;;;;;14.70;6.00;;;29.70;90.60;;;;;;5014006;28;20037;-49
2022/06/23 12:23:27;;;;;;;10.27;5.50;;;29.80;89.50;;;;;;5013785;28;20034;-51
2022/06/23 12:26:05;;;;;;;12.73;6.25;;;29.90;89.00;;;;;;4927703;29;20118;-53
2022/06/23 12:28:54;;;;;;;11.50;4.82;;;29.80;88.40;;;;;;4976524;28;20113;-47
2022/06/23 12:31:38;;;;;;;10.77;5.38;;;29.70;88.40;;;;;;4998833;28;20052;-50
2022/06/23 12:34:03;;;;;;;7.82;5.40;;;29.70;88.50;;;;;;5013965;28;20029;-53
2022/06/23 12:36:39;;;;;;;28.33;15.50;;;29.80;89.00;;;;;;5013840;28;20030;-51
2022/06/23 12:39:11;;;;;;;15.40;9.57;;;29.60;88.10;;;;;;5013932;28;20026;-48
2022/06/23 12:41:46;;;;;;;12.88;6.40;;;29.70;88.80;;;;;;5034994;23;20489;-52
2022/06/23 12:44:38;;;;;;;10.15;4.70;;;29.60;88.60;;;;;;5032460;28;20473;-53
2022/06/23 12:47:26;;;;;;;7.45;4.60;;;29.80;89.10;;;;;;5014075;28;20044;-51
2022/06/23 12:50:00;;;;;;;10.20;5.43;;;30.00;88.60;;;;;;5031907;28;20101;-49
2022/06/23 12:52:29;;;;;;;11.18;4.72;;;30.20;87.90;;;;;;5049216;28;20496;-51
2022/06/23 12:55:34;;;;;;;9.60;4.88;;;30.40;87.70;;;;;;5037293;28;20041;-50
2022/06/23 12:58:28;;;;;;;7.40;4.53;;;30.50;87.10;;;;;;5024732;28;20120;-54
2022/06/23 13:01:08;;;;;;;10.13;4.93;;;30.50;86.10;;;;;;5026900;28;20033;-49
2022/06/23 13:03:55;;;;;;;8.15;5.25;;;30.50;85.40;;;;;;5032937;28;20025;-52
2022/06/23 13:06:33;;;;;;;8.70;4.90;;;30.50;84.60;;;;;;5032449;28;20029;-47
2022/06/23 13:09:29;;;;;;;9.43;5.15;;;30.40;84.50;;;;;;5014564;28;20030;-48
2022/06/23 13:12:07;;;;;;;12.63;4.78;;;30.40;85.20;;;;;;5032682;28;20103;-48
2022/06/23 13:14:47;;;;;;;10.50;4.97;;;30.30;86.20;;;;;;5032657;28;20060;-50
2022/06/23 13:17:26;;;;;;;6.70;4.22;;;30.20;85.40;;;;;;5032472;28;20473;-51
2022/06/23 13:20:10;;;;;;;10.88;4.03;;;30.10;84.70;;;;;;5032730;28;20025;-48
2022/06/23 13:22:55;;;;;;;8.53;4.17;;;30.00;85.10;;;;;;5013003;28;20025;-52
2022/06/23 13:25:25;;;;;;;12.07;4.13;;;30.00;85.60;;;;;;5032067;28;20794;-49
2022/06/23 13:27:53;;;;;;;13.60;4.97;;;29.90;85.50;;;;;;5031719;28;20025;-51
2022/06/23 13:30:21;;;;;;;10.65;4.68;;;30.00;85.80;;;;;;5032474;28;20017;-48
2022/06/23 13:32:55;;;;;;;8.93;4.13;;;30.10;84.40;;;;;;5032319;28;20041;-49
2022/06/23 13:35:30;;;;;;;11.60;4.43;;;30.20;83.10;;;;;;5031955;28;20044;-49
2022/06/23 13:38:14;;;;;;;;;;;30.20;82.80;;;;;;5032016;28;20035;-48
2022/06/23 13:40:47;;;;;;;13.15;4.28;;;30.30;82.90;;;;;;5048149;28;19908;-46
2022/06/23 13:43:22;;;;;;;15.88;4.85;;;30.40;83.40;;;;;;5051367;28;20025;-49
2022/06/23 13:46:00;;;;;;;7.75;3.60;;;30.40;81.60;;;;;;5032364;28;20032;-47
2022/06/23 13:48:39;;;;;;;7.80;3.67;;;30.30;82.90;;;;;;5031875;28;20029;-46
2022/06/23 13:51:20;;;;;;;9.93;4.45;;;30.30;83.90;;;;;;5032040;28;20484;-47
2022/06/23 13:53:58;;;;;;;7.88;4.00;;;30.40;84.00;;;;;;5032010;28;20176;-46
2022/06/23 13:56:34;;;;;;;9.02;3.50;;;30.40;83.50;;;;;;5032277;28;20040;-51